sensor_id;sensor_type;location;lat;lon;timestamp;P1;durP1;ratioP1;P2;durP2;ratioP2
26530;SDS011;14201;43.188;24.160;2024-02-26T00:01:49;11.95;;;8.38;;
26530;SDS011;14201;43.188;24.160;2024-02-26T00:04:14;14.35;;;8.68;;
26530;SDS011;14201;43.188;24.160;2024-02-26T00:06:40;15.75;;;8.77;;
26530;SDS011;14201;43.188;24.160;2024-02-26T00:09:06;13.75;;;8.40;;
26530;SDS011;14201;43.188;24.160;2024-02-26T00:11:33;14.75;;;8.85;;
26530;SDS011;14201;43.188;24.160;2024-02-26T00:13:58;14.48;;;9.30;;
26530;SDS011;14201;43.188;24.160;2024-02-26T00:16:25;13.82;;;8.63;;
26530;SDS011;14201;43.188;24.160;2024-02-26T00:18:50;11.18;;;8.60;;
26530;SDS011;14201;43.188;24.160;2024-02-26T00:21:16;15.07;;;9.05;;
26530;SDS011;14201;43.188;24.160;2024-02-26T00:23:41;13.40;;;9.13;;
26530;SDS011;14201;43.188;24.160;2024-02-26T00:26:07;18.30;;;9.50;;
26530;SDS011;14201;43.188;24.160;2024-02-26T00:28:33;14.32;;;9.07;;
26530;SDS011;14201;43.188;24.160;2024-02-26T00:30:58;15.98;;;9.50;;
26530;SDS011;14201;43.188;24.160;2024-02-26T00:33:24;14.07;;;8.40;;
26530;SDS011;14201;43.188;24.160;2024-02-26T00:35:50;11.88;;;8.68;;
26530;SDS011;14201;43.188;24.160;2024-02-26T00:38:15;14.90;;;9.30;;
26530;SDS011;14201;43.188;24.160;2024-02-26T00:40:41;13.82;;;9.23;;
26530;SDS011;14201;43.188;24.160;2024-02-26T00:43:07;14.55;;;9.18;;
26530;SDS011;14201;43.188;24.160;2024-02-26T00:45:32;12.75;;;8.48;;
26530;SDS011;14201;43.188;24.160;2024-02-26T00:47:58;11.98;;;8.60;;
26530;SDS011;14201;43.188;24.160;2024-02-26T00:50:26;16.15;;;9.52;;
26530;SDS011;14201;43.188;24.160;2024-02-26T00:52:52;14.75;;;8.52;;
26530;SDS011;14201;43.188;24.160;2024-02-26T00:55:18;13.32;;;8.48;;
26530;SDS011;14201;43.188;24.160;2024-02-26T00:57:43;14.98;;;8.77;;
26530;SDS011;14201;43.188;24.160;2024-02-26T01:00:09;12.40;;;8.63;;
26530;SDS011;14201;43.188;24.160;2024-02-26T01:02:36;13.60;;;7.95;;
26530;SDS011;14201;43.188;24.160;2024-02-26T01:05:02;12.77;;;7.68;;
26530;SDS011;14201;43.188;24.160;2024-02-26T01:07:28;12.98;;;7.90;;
26530;SDS011;14201;43.188;24.160;2024-02-26T01:09:53;14.05;;;8.45;;
26530;SDS011;14201;43.188;24.160;2024-02-26T01:12:19;10.55;;;7.57;;
26530;SDS011;14201;43.188;24.160;2024-02-26T01:14:44;11.40;;;8.10;;
26530;SDS011;14201;43.188;24.160;2024-02-26T01:17:10;13.30;;;7.38;;
26530;SDS011;14201;43.188;24.160;2024-02-26T01:19:36;9.55;;;7.07;;
26530;SDS011;14201;43.188;24.160;2024-02-26T01:22:01;9.55;;;7.60;;
26530;SDS011;14201;43.188;24.160;2024-02-26T01:24:27;9.73;;;6.95;;
26530;SDS011;14201;43.188;24.160;2024-02-26T01:26:53;9.15;;;7.15;;
26530;SDS011;14201;43.188;24.160;2024-02-26T01:29:18;9.63;;;6.85;;
26530;SDS011;14201;43.188;24.160;2024-02-26T01:31:44;9.50;;;7.55;;
26530;SDS011;14201;43.188;24.160;2024-02-26T01:34:11;13.13;;;7.25;;
26530;SDS011;14201;43.188;24.160;2024-02-26T01:36:36;10.70;;;7.82;;
26530;SDS011;14201;43.188;24.160;2024-02-26T01:39:02;10.48;;;7.63;;
26530;SDS011;14201;43.188;24.160;2024-02-26T01:41:28;13.80;;;8.02;;
26530;SDS011;14201;43.188;24.160;2024-02-26T01:43:54;12.45;;;7.65;;
26530;SDS011;14201;43.188;24.160;2024-02-26T01:46:19;9.93;;;7.47;;
26530;SDS011;14201;43.188;24.160;2024-02-26T01:48:45;10.93;;;8.02;;
26530;SDS011;14201;43.188;24.160;2024-02-26T01:51:15;13.45;;;8.55;;
26530;SDS011;14201;43.188;24.160;2024-02-26T01:53:41;10.85;;;7.28;;
26530;SDS011;14201;43.188;24.160;2024-02-26T01:56:07;11.68;;;7.43;;
26530;SDS011;14201;43.188;24.160;2024-02-26T01:58:33;10.35;;;7.30;;
26530;SDS011;14201;43.188;24.160;2024-02-26T02:01:00;11.05;;;7.15;;
26530;SDS011;14201;43.188;24.160;2024-02-26T02:03:27;10.32;;;7.45;;
26530;SDS011;14201;43.188;24.160;2024-02-26T02:05:55;11.80;;;7.43;;
26530;SDS011;14201;43.188;24.160;2024-02-26T02:08:21;11.88;;;7.60;;
26530;SDS011;14201;43.188;24.160;2024-02-26T02:10:48;11.20;;;7.80;;
26530;SDS011;14201;43.188;24.160;2024-02-26T02:13:14;12.45;;;7.40;;
26530;SDS011;14201;43.188;24.160;2024-02-26T02:15:40;12.32;;;7.15;;
26530;SDS011;14201;43.188;24.160;2024-02-26T02:18:05;9.93;;;7.20;;
26530;SDS011;14201;43.188;24.160;2024-02-26T02:20:32;12.65;;;7.90;;
26530;SDS011;14201;43.188;24.160;2024-02-26T02:23:02;12.07;;;7.78;;
26530;SDS011;14201;43.188;24.160;2024-02-26T02:25:28;10.30;;;8.02;;
26530;SDS011;14201;43.188;24.160;2024-02-26T02:27:54;14.07;;;8.07;;
26530;SDS011;14201;43.188;24.160;2024-02-26T02:30:21;15.82;;;8.30;;
26530;SDS011;14201;43.188;24.160;2024-02-26T02:32:49;11.75;;;7.70;;
26530;SDS011;14201;43.188;24.160;2024-02-26T02:35:14;9.07;;;6.88;;
26530;SDS011;14201;43.188;24.160;2024-02-26T02:37:40;9.65;;;7.43;;
26530;SDS011;14201;43.188;24.160;2024-02-26T02:40:06;12.43;;;7.93;;
26530;SDS011;14201;43.188;24.160;2024-02-26T02:42:32;9.32;;;6.93;;
26530;SDS011;14201;43.188;24.160;2024-02-26T02:44:57;11.98;;;7.38;;
26530;SDS011;14201;43.188;24.160;2024-02-26T02:47:23;12.85;;;7.78;;
26530;SDS011;14201;43.188;24.160;2024-02-26T02:49:48;11.13;;;7.43;;
26530;SDS011;14201;43.188;24.160;2024-02-26T02:52:14;11.77;;;7.93;;
26530;SDS011;14201;43.188;24.160;2024-02-26T02:54:40;13.68;;;8.00;;
26530;SDS011;14201;43.188;24.160;2024-02-26T02:57:07;11.18;;;7.28;;
26530;SDS011;14201;43.188;24.160;2024-02-26T02:59:33;11.35;;;8.38;;
26530;SDS011;14201;43.188;24.160;2024-02-26T03:01:59;13.32;;;7.72;;
26530;SDS011;14201;43.188;24.160;2024-02-26T03:04:24;11.07;;;8.27;;
26530;SDS011;14201;43.188;24.160;2024-02-26T03:06:50;14.32;;;8.02;;
26530;SDS011;14201;43.188;24.160;2024-02-26T03:09:15;11.27;;;7.95;;
26530;SDS011;14201;43.188;24.160;2024-02-26T03:11:41;11.93;;;8.40;;
26530;SDS011;14201;43.188;24.160;2024-02-26T03:14:07;10.77;;;7.40;;
26530;SDS011;14201;43.188;24.160;2024-02-26T03:16:32;13.80;;;8.05;;
26530;SDS011;14201;43.188;24.160;2024-02-26T03:18:58;13.23;;;8.52;;
26530;SDS011;14201;43.188;24.160;2024-02-26T03:21:25;11.20;;;7.72;;
26530;SDS011;14201;43.188;24.160;2024-02-26T03:23:50;12.60;;;8.05;;
26530;SDS011;14201;43.188;24.160;2024-02-26T03:26:16;15.40;;;8.10;;
26530;SDS011;14201;43.188;24.160;2024-02-26T03:28:41;9.00;;;6.05;;
26530;SDS011;14201;43.188;24.160;2024-02-26T03:31:07;9.18;;;6.43;;
26530;SDS011;14201;43.188;24.160;2024-02-26T03:33:33;10.88;;;6.80;;
26530;SDS011;14201;43.188;24.160;2024-02-26T03:35:59;10.35;;;7.28;;
26530;SDS011;14201;43.188;24.160;2024-02-26T03:38:25;12.93;;;7.60;;
26530;SDS011;14201;43.188;24.160;2024-02-26T03:40:50;12.63;;;7.97;;
26530;SDS011;14201;43.188;24.160;2024-02-26T03:43:16;11.73;;;8.18;;
26530;SDS011;14201;43.188;24.160;2024-02-26T03:45:42;12.00;;;7.97;;
26530;SDS011;14201;43.188;24.160;2024-02-26T03:48:07;10.18;;;7.85;;
26530;SDS011;14201;43.188;24.160;2024-02-26T03:50:33;13.95;;;9.15;;
26530;SDS011;14201;43.188;24.160;2024-02-26T03:52:59;12.23;;;8.18;;
26530;SDS011;14201;43.188;24.160;2024-02-26T03:55:25;11.23;;;7.95;;
26530;SDS011;14201;43.188;24.160;2024-02-26T03:57:51;10.77;;;7.95;;
26530;SDS011;14201;43.188;24.160;2024-02-26T04:00:17;12.43;;;8.52;;
26530;SDS011;14201;43.188;24.160;2024-02-26T04:02:43;10.13;;;7.18;;
26530;SDS011;14201;43.188;24.160;2024-02-26T04:05:09;10.68;;;7.07;;
26530;SDS011;14201;43.188;24.160;2024-02-26T04:07:35;12.82;;;7.63;;
26530;SDS011;14201;43.188;24.160;2024-02-26T04:10:01;11.07;;;7.65;;
26530;SDS011;14201;43.188;24.160;2024-02-26T04:12:30;13.20;;;7.72;;
26530;SDS011;14201;43.188;24.160;2024-02-26T04:14:56;14.27;;;8.02;;
26530;SDS011;14201;43.188;24.160;2024-02-26T04:17:21;11.40;;;7.93;;
26530;SDS011;14201;43.188;24.160;2024-02-26T04:19:47;12.90;;;8.30;;
26530;SDS011;14201;43.188;24.160;2024-02-26T04:22:12;12.90;;;8.93;;
26530;SDS011;14201;43.188;24.160;2024-02-26T04:24:38;11.88;;;8.20;;
26530;SDS011;14201;43.188;24.160;2024-02-26T04:27:04;15.48;;;8.77;;
26530;SDS011;14201;43.188;24.160;2024-02-26T04:29:29;13.60;;;8.50;;
26530;SDS011;14201;43.188;24.160;2024-02-26T04:31:55;12.23;;;8.40;;
26530;SDS011;14201;43.188;24.160;2024-02-26T04:34:20;17.05;;;7.78;;
26530;SDS011;14201;43.188;24.160;2024-02-26T04:36:46;12.48;;;8.50;;
26530;SDS011;14201;43.188;24.160;2024-02-26T04:39:13;12.88;;;8.10;;
26530;SDS011;14201;43.188;24.160;2024-02-26T04:41:38;10.48;;;7.25;;
26530;SDS011;14201;43.188;24.160;2024-02-26T04:44:04;10.07;;;7.32;;
26530;SDS011;14201;43.188;24.160;2024-02-26T04:46:30;13.50;;;8.15;;
26530;SDS011;14201;43.188;24.160;2024-02-26T04:48:56;12.40;;;7.70;;
26530;SDS011;14201;43.188;24.160;2024-02-26T04:51:21;12.50;;;8.00;;
26530;SDS011;14201;43.188;24.160;2024-02-26T04:53:47;12.70;;;8.02;;
26530;SDS011;14201;43.188;24.160;2024-02-26T04:56:14;11.73;;;8.40;;
26530;SDS011;14201;43.188;24.160;2024-02-26T04:58:39;16.58;;;8.07;;
26530;SDS011;14201;43.188;24.160;2024-02-26T05:01:05;12.02;;;7.75;;
26530;SDS011;14201;43.188;24.160;2024-02-26T05:03:30;11.88;;;7.95;;
26530;SDS011;14201;43.188;24.160;2024-02-26T05:05:57;11.52;;;7.72;;
26530;SDS011;14201;43.188;24.160;2024-02-26T05:08:23;12.30;;;7.93;;
26530;SDS011;14201;43.188;24.160;2024-02-26T05:10:49;10.50;;;7.60;;
26530;SDS011;14201;43.188;24.160;2024-02-26T05:13:14;14.77;;;8.57;;
26530;SDS011;14201;43.188;24.160;2024-02-26T05:15:43;14.48;;;8.43;;
26530;SDS011;14201;43.188;24.160;2024-02-26T05:18:10;15.38;;;8.77;;
26530;SDS011;14201;43.188;24.160;2024-02-26T05:20:35;12.65;;;8.32;;
26530;SDS011;14201;43.188;24.160;2024-02-26T05:23:03;11.55;;;8.45;;
26530;SDS011;14201;43.188;24.160;2024-02-26T05:25:29;11.02;;;7.25;;
26530;SDS011;14201;43.188;24.160;2024-02-26T05:27:55;12.05;;;7.57;;
26530;SDS011;14201;43.188;24.160;2024-02-26T05:30:20;12.18;;;8.25;;
26530;SDS011;14201;43.188;24.160;2024-02-26T05:32:46;17.17;;;8.35;;
26530;SDS011;14201;43.188;24.160;2024-02-26T05:35:12;11.05;;;8.52;;
26530;SDS011;14201;43.188;24.160;2024-02-26T05:37:37;13.70;;;8.57;;
26530;SDS011;14201;43.188;24.160;2024-02-26T05:40:04;12.38;;;8.77;;
26530;SDS011;14201;43.188;24.160;2024-02-26T05:42:30;13.20;;;8.57;;
26530;SDS011;14201;43.188;24.160;2024-02-26T05:44:56;14.90;;;8.13;;
26530;SDS011;14201;43.188;24.160;2024-02-26T05:47:22;14.98;;;8.18;;
26530;SDS011;14201;43.188;24.160;2024-02-26T05:49:48;13.30;;;8.63;;
26530;SDS011;14201;43.188;24.160;2024-02-26T05:52:14;13.15;;;8.45;;
26530;SDS011;14201;43.188;24.160;2024-02-26T05:54:40;9.65;;;7.50;;
26530;SDS011;14201;43.188;24.160;2024-02-26T05:57:08;11.93;;;8.23;;
26530;SDS011;14201;43.188;24.160;2024-02-26T05:59:34;12.70;;;8.15;;
26530;SDS011;14201;43.188;24.160;2024-02-26T06:01:59;12.07;;;8.35;;
26530;SDS011;14201;43.188;24.160;2024-02-26T06:04:25;11.82;;;8.00;;
26530;SDS011;14201;43.188;24.160;2024-02-26T06:06:50;10.48;;;7.70;;
26530;SDS011;14201;43.188;24.160;2024-02-26T06:09:16;11.70;;;8.45;;
26530;SDS011;14201;43.188;24.160;2024-02-26T06:11:42;13.43;;;8.15;;
26530;SDS011;14201;43.188;24.160;2024-02-26T06:14:07;12.82;;;7.60;;
26530;SDS011;14201;43.188;24.160;2024-02-26T06:16:33;13.15;;;8.25;;
26530;SDS011;14201;43.188;24.160;2024-02-26T06:19:00;10.35;;;8.20;;
26530;SDS011;14201;43.188;24.160;2024-02-26T06:21:25;15.52;;;9.25;;
26530;SDS011;14201;43.188;24.160;2024-02-26T06:23:51;14.07;;;8.43;;
26530;SDS011;14201;43.188;24.160;2024-02-26T06:26:16;12.43;;;8.75;;
26530;SDS011;14201;43.188;24.160;2024-02-26T06:28:42;12.15;;;8.35;;
26530;SDS011;14201;43.188;24.160;2024-02-26T06:31:08;13.07;;;9.18;;
26530;SDS011;14201;43.188;24.160;2024-02-26T06:33:33;11.98;;;8.48;;
26530;SDS011;14201;43.188;24.160;2024-02-26T06:35:59;12.65;;;8.55;;
26530;SDS011;14201;43.188;24.160;2024-02-26T06:38:24;14.73;;;8.65;;
26530;SDS011;14201;43.188;24.160;2024-02-26T06:40:50;11.75;;;8.13;;
26530;SDS011;14201;43.188;24.160;2024-02-26T06:43:16;13.07;;;8.63;;
26530;SDS011;14201;43.188;24.160;2024-02-26T06:45:41;15.00;;;8.70;;
26530;SDS011;14201;43.188;24.160;2024-02-26T06:48:07;11.30;;;8.32;;
26530;SDS011;14201;43.188;24.160;2024-02-26T06:50:33;15.57;;;9.23;;
26530;SDS011;14201;43.188;24.160;2024-02-26T06:52:58;14.98;;;9.13;;
26530;SDS011;14201;43.188;24.160;2024-02-26T06:55:24;13.93;;;9.27;;
26530;SDS011;14201;43.188;24.160;2024-02-26T06:57:49;14.15;;;8.75;;
26530;SDS011;14201;43.188;24.160;2024-02-26T07:00:15;12.50;;;8.70;;
26530;SDS011;14201;43.188;24.160;2024-02-26T07:02:42;13.18;;;8.50;;
26530;SDS011;14201;43.188;24.160;2024-02-26T07:05:08;21.80;;;8.55;;
26530;SDS011;14201;43.188;24.160;2024-02-26T07:07:34;12.15;;;8.50;;
26530;SDS011;14201;43.188;24.160;2024-02-26T07:10:00;11.60;;;8.45;;
26530;SDS011;14201;43.188;24.160;2024-02-26T07:12:29;13.07;;;8.73;;
26530;SDS011;14201;43.188;24.160;2024-02-26T07:14:55;11.68;;;8.63;;
26530;SDS011;14201;43.188;24.160;2024-02-26T07:17:20;11.98;;;7.95;;
26530;SDS011;14201;43.188;24.160;2024-02-26T07:19:46;11.75;;;7.60;;
26530;SDS011;14201;43.188;24.160;2024-02-26T07:22:11;13.50;;;7.90;;
26530;SDS011;14201;43.188;24.160;2024-02-26T07:24:37;25.92;;;15.93;;
26530;SDS011;14201;43.188;24.160;2024-02-26T07:27:03;29.75;;;20.35;;
26530;SDS011;14201;43.188;24.160;2024-02-26T07:29:28;13.65;;;9.30;;
26530;SDS011;14201;43.188;24.160;2024-02-26T07:31:54;24.05;;;9.57;;
26530;SDS011;14201;43.188;24.160;2024-02-26T07:34:20;16.27;;;9.73;;
26530;SDS011;14201;43.188;24.160;2024-02-26T07:41:36;36.90;;;23.75;;
26530;SDS011;14201;43.188;24.160;2024-02-26T07:44:04;26.45;;;17.73;;
26530;SDS011;14201;43.188;24.160;2024-02-26T07:46:29;15.65;;;11.38;;
26530;SDS011;14201;43.188;24.160;2024-02-26T07:48:55;19.73;;;13.23;;
26530;SDS011;14201;43.188;24.160;2024-02-26T07:51:20;23.13;;;14.80;;
26530;SDS011;14201;43.188;24.160;2024-02-26T07:53:47;16.13;;;11.15;;
26530;SDS011;14201;43.188;24.160;2024-02-26T07:56:13;16.58;;;10.32;;
26530;SDS011;14201;43.188;24.160;2024-02-26T07:58:38;18.67;;;10.60;;
26530;SDS011;14201;43.188;24.160;2024-02-26T08:10:46;13.27;;;7.30;;
26530;SDS011;14201;43.188;24.160;2024-02-26T08:13:12;10.13;;;7.18;;
26530;SDS011;14201;43.188;24.160;2024-02-26T08:15:38;12.18;;;7.82;;
26530;SDS011;14201;43.188;24.160;2024-02-26T08:18:03;9.55;;;7.07;;
26530;SDS011;14201;43.188;24.160;2024-02-26T08:20:30;12.00;;;7.70;;
26530;SDS011;14201;43.188;24.160;2024-02-26T18:55:15;27.05;;;18.85;;
26530;SDS011;14201;43.188;24.160;2024-02-26T18:57:41;30.35;;;19.55;;
26530;SDS011;14201;43.188;24.160;2024-02-26T19:00:07;28.95;;;19.10;;
26530;SDS011;14201;43.188;24.160;2024-02-26T19:02:34;26.55;;;18.45;;
26530;SDS011;14201;43.188;24.160;2024-02-26T19:05:00;28.48;;;19.25;;
26530;SDS011;14201;43.188;24.160;2024-02-26T19:07:25;29.48;;;19.38;;
26530;SDS011;14201;43.188;24.160;2024-02-26T19:09:51;31.98;;;19.40;;
26530;SDS011;14201;43.188;24.160;2024-02-26T19:12:18;29.77;;;20.70;;
26530;SDS011;14201;43.188;24.160;2024-02-26T19:17:15;25.83;;;15.77;;
26530;SDS011;14201;43.188;24.160;2024-02-26T19:19:41;26.30;;;16.77;;
26530;SDS011;14201;43.188;24.160;2024-02-26T19:22:07;29.27;;;17.23;;
26530;SDS011;14201;43.188;24.160;2024-02-26T19:24:33;29.75;;;18.73;;
26530;SDS011;14201;43.188;24.160;2024-02-26T19:26:59;30.17;;;19.25;;
26530;SDS011;14201;43.188;24.160;2024-02-26T19:29:25;32.15;;;19.52;;
26530;SDS011;14201;43.188;24.160;2024-02-26T19:31:51;31.13;;;19.90;;
26530;SDS011;14201;43.188;24.160;2024-02-26T19:34:16;29.38;;;20.50;;
26530;SDS011;14201;43.188;24.160;2024-02-26T19:36:42;31.52;;;20.17;;
26530;SDS011;14201;43.188;24.160;2024-02-26T19:39:08;28.10;;;18.95;;
26530;SDS011;14201;43.188;24.160;2024-02-26T19:41:34;25.77;;;19.15;;
26530;SDS011;14201;43.188;24.160;2024-02-26T19:44:00;31.17;;;20.25;;
26530;SDS011;14201;43.188;24.160;2024-02-26T19:46:25;26.15;;;19.13;;
26530;SDS011;14201;43.188;24.160;2024-02-26T19:48:52;31.80;;;19.60;;
26530;SDS011;14201;43.188;24.160;2024-02-26T19:51:17;27.25;;;19.88;;
26530;SDS011;14201;43.188;24.160;2024-02-26T19:53:44;31.90;;;20.45;;
26530;SDS011;14201;43.188;24.160;2024-02-26T19:56:10;26.73;;;19.83;;
26530;SDS011;14201;43.188;24.160;2024-02-26T19:58:36;31.50;;;20.67;;
26530;SDS011;14201;43.188;24.160;2024-02-26T20:01:02;29.15;;;19.20;;
26530;SDS011;14201;43.188;24.160;2024-02-26T20:03:27;34.60;;;20.77;;
26530;SDS011;14201;43.188;24.160;2024-02-26T20:05:53;31.20;;;21.17;;
26530;SDS011;14201;43.188;24.160;2024-02-26T20:08:18;33.35;;;21.15;;
26530;SDS011;14201;43.188;24.160;2024-02-26T20:10:44;26.83;;;18.05;;
26530;SDS011;14201;43.188;24.160;2024-02-26T20:13:15;29.85;;;19.05;;
26530;SDS011;14201;43.188;24.160;2024-02-26T20:15:41;26.80;;;18.15;;
26530;SDS011;14201;43.188;24.160;2024-02-26T20:18:07;24.08;;;15.80;;
26530;SDS011;14201;43.188;24.160;2024-02-26T20:20:32;29.15;;;18.00;;
26530;SDS011;14201;43.188;24.160;2024-02-26T20:22:58;27.13;;;19.38;;
26530;SDS011;14201;43.188;24.160;2024-02-26T20:25:24;27.80;;;17.77;;
26530;SDS011;14201;43.188;24.160;2024-02-26T20:27:49;26.73;;;18.50;;
26530;SDS011;14201;43.188;24.160;2024-02-26T20:30:15;32.80;;;19.20;;
26530;SDS011;14201;43.188;24.160;2024-02-26T20:32:42;33.97;;;19.33;;
26530;SDS011;14201;43.188;24.160;2024-02-26T20:35:07;27.00;;;19.73;;
26530;SDS011;14201;43.188;24.160;2024-02-26T20:37:34;30.48;;;19.65;;
26530;SDS011;14201;43.188;24.160;2024-02-26T20:40:00;30.65;;;19.80;;
26530;SDS011;14201;43.188;24.160;2024-02-26T20:42:26;29.48;;;20.10;;
26530;SDS011;14201;43.188;24.160;2024-02-26T20:44:51;29.97;;;18.83;;
26530;SDS011;14201;43.188;24.160;2024-02-26T20:49:43;30.45;;;20.83;;
26530;SDS011;14201;43.188;24.160;2024-02-26T20:52:09;29.17;;;19.48;;
26530;SDS011;14201;43.188;24.160;2024-02-26T20:54:35;28.13;;;18.38;;
26530;SDS011;14201;43.188;24.160;2024-02-26T20:57:00;24.70;;;18.35;;
26530;SDS011;14201;43.188;24.160;2024-02-26T20:59:27;30.85;;;21.17;;
26530;SDS011;14201;43.188;24.160;2024-02-26T21:01:56;31.10;;;20.73;;
26530;SDS011;14201;43.188;24.160;2024-02-26T21:04:22;25.30;;;18.45;;
26530;SDS011;14201;43.188;24.160;2024-02-26T21:06:47;30.95;;;20.13;;
26530;SDS011;14201;43.188;24.160;2024-02-26T21:09:13;28.95;;;19.52;;
26530;SDS011;14201;43.188;24.160;2024-02-26T21:11:39;29.77;;;20.52;;
26530;SDS011;14201;43.188;24.160;2024-02-26T21:14:06;26.77;;;17.00;;
26530;SDS011;14201;43.188;24.160;2024-02-26T21:16:33;24.40;;;17.80;;
26530;SDS011;14201;43.188;24.160;2024-02-26T21:18:58;25.58;;;17.17;;
26530;SDS011;14201;43.188;24.160;2024-02-26T21:21:26;29.15;;;18.80;;
26530;SDS011;14201;43.188;24.160;2024-02-26T21:23:53;31.15;;;19.52;;
26530;SDS011;14201;43.188;24.160;2024-02-26T21:26:19;27.33;;;19.35;;
26530;SDS011;14201;43.188;24.160;2024-02-26T21:28:44;29.27;;;20.13;;
26530;SDS011;14201;43.188;24.160;2024-02-26T21:31:10;31.08;;;21.38;;
26530;SDS011;14201;43.188;24.160;2024-02-26T21:33:36;30.92;;;19.60;;
26530;SDS011;14201;43.188;24.160;2024-02-26T21:36:01;34.80;;;20.98;;
26530;SDS011;14201;43.188;24.160;2024-02-26T21:38:27;32.95;;;20.58;;
26530;SDS011;14201;43.188;24.160;2024-02-26T21:40:53;35.47;;;21.90;;
26530;SDS011;14201;43.188;24.160;2024-02-26T21:43:18;35.65;;;21.48;;
26530;SDS011;14201;43.188;24.160;2024-02-26T21:45:44;33.33;;;21.15;;
26530;SDS011;14201;43.188;24.160;2024-02-26T21:48:10;33.72;;;22.10;;
26530;SDS011;14201;43.188;24.160;2024-02-26T21:50:36;31.45;;;18.52;;
26530;SDS011;14201;43.188;24.160;2024-02-26T21:53:01;28.13;;;18.67;;
26530;SDS011;14201;43.188;24.160;2024-02-26T21:55:27;30.42;;;19.92;;
26530;SDS011;14201;43.188;24.160;2024-02-26T21:57:53;35.47;;;21.92;;
26530;SDS011;14201;43.188;24.160;2024-02-26T22:00:20;37.65;;;22.23;;
26530;SDS011;14201;43.188;24.160;2024-02-26T22:02:49;29.98;;;21.55;;
26530;SDS011;14201;43.188;24.160;2024-02-26T22:05:14;33.40;;;21.85;;
26530;SDS011;14201;43.188;24.160;2024-02-26T22:07:40;35.42;;;23.02;;
26530;SDS011;14201;43.188;24.160;2024-02-26T22:10:06;28.05;;;20.70;;
26530;SDS011;14201;43.188;24.160;2024-02-26T22:12:32;30.95;;;20.55;;
26530;SDS011;14201;43.188;24.160;2024-02-26T22:15:00;32.15;;;21.48;;
26530;SDS011;14201;43.188;24.160;2024-02-26T22:17:25;29.98;;;20.80;;
26530;SDS011;14201;43.188;24.160;2024-02-26T22:19:52;33.05;;;21.92;;
26530;SDS011;14201;43.188;24.160;2024-02-26T22:22:18;31.80;;;20.98;;
26530;SDS011;14201;43.188;24.160;2024-02-26T22:24:44;28.90;;;21.80;;
26530;SDS011;14201;43.188;24.160;2024-02-26T22:27:09;32.58;;;19.75;;
26530;SDS011;14201;43.188;24.160;2024-02-26T22:29:35;68.03;;;20.65;;
26530;SDS011;14201;43.188;24.160;2024-02-26T22:32:00;42.25;;;21.65;;
26530;SDS011;14201;43.188;24.160;2024-02-26T22:34:26;30.20;;;17.38;;
26530;SDS011;14201;43.188;24.160;2024-02-26T22:36:52;27.42;;;18.20;;
26530;SDS011;14201;43.188;24.160;2024-02-26T22:39:18;27.55;;;19.23;;
26530;SDS011;14201;43.188;24.160;2024-02-26T22:41:43;28.67;;;20.05;;
26530;SDS011;14201;43.188;24.160;2024-02-26T22:44:10;35.15;;;20.92;;
26530;SDS011;14201;43.188;24.160;2024-02-26T22:46:36;34.65;;;22.33;;
26530;SDS011;14201;43.188;24.160;2024-02-26T22:49:01;33.55;;;20.50;;
26530;SDS011;14201;43.188;24.160;2024-02-26T22:51:27;26.08;;;18.00;;
26530;SDS011;14201;43.188;24.160;2024-02-26T22:53:53;31.10;;;19.23;;
26530;SDS011;14201;43.188;24.160;2024-02-26T22:56:18;32.63;;;20.98;;
26530;SDS011;14201;43.188;24.160;2024-02-26T22:58:44;28.98;;;20.92;;
26530;SDS011;14201;43.188;24.160;2024-02-26T23:01:10;34.10;;;21.80;;
26530;SDS011;14201;43.188;24.160;2024-02-26T23:03:35;36.08;;;22.13;;
26530;SDS011;14201;43.188;24.160;2024-02-26T23:06:01;36.42;;;22.83;;
26530;SDS011;14201;43.188;24.160;2024-02-26T23:08:27;34.00;;;21.77;;
26530;SDS011;14201;43.188;24.160;2024-02-26T23:10:52;34.50;;;23.85;;
26530;SDS011;14201;43.188;24.160;2024-02-26T23:13:19;34.50;;;22.85;;
26530;SDS011;14201;43.188;24.160;2024-02-26T23:15:44;30.42;;;21.55;;
26530;SDS011;14201;43.188;24.160;2024-02-26T23:18:11;32.35;;;23.85;;
26530;SDS011;14201;43.188;24.160;2024-02-26T23:20:36;31.52;;;20.10;;
26530;SDS011;14201;43.188;24.160;2024-02-26T23:23:02;27.77;;;20.10;;
26530;SDS011;14201;43.188;24.160;2024-02-26T23:25:28;32.10;;;22.00;;
26530;SDS011;14201;43.188;24.160;2024-02-26T23:27:54;36.13;;;24.38;;
26530;SDS011;14201;43.188;24.160;2024-02-26T23:30:20;37.55;;;25.70;;
26530;SDS011;14201;43.188;24.160;2024-02-26T23:32:46;37.53;;;25.50;;
26530;SDS011;14201;43.188;24.160;2024-02-26T23:35:12;38.13;;;25.98;;
26530;SDS011;14201;43.188;24.160;2024-02-26T23:37:37;39.90;;;24.65;;
26530;SDS011;14201;43.188;24.160;2024-02-26T23:40:03;35.53;;;25.38;;
26530;SDS011;14201;43.188;24.160;2024-02-26T23:42:32;36.85;;;24.13;;
26530;SDS011;14201;43.188;24.160;2024-02-26T23:44:58;37.40;;;24.25;;
26530;SDS011;14201;43.188;24.160;2024-02-26T23:47:23;35.00;;;24.63;;
26530;SDS011;14201;43.188;24.160;2024-02-26T23:49:49;38.53;;;26.23;;
26530;SDS011;14201;43.188;24.160;2024-02-26T23:52:18;32.28;;;22.30;;
26530;SDS011;14201;43.188;24.160;2024-02-26T23:54:43;30.75;;;21.38;;
26530;SDS011;14201;43.188;24.160;2024-02-26T23:57:09;31.25;;;21.13;;
26530;SDS011;14201;43.188;24.160;2024-02-26T23:59:34;31.17;;;21.40;;
